createdAt,value
2023-04-16T00:00:36.141Z,23.20
2023-04-16T00:05:33.340Z,22.70
2023-04-16T00:08:02.857Z,23.27
2023-04-16T00:10:30.691Z,22.88
2023-04-16T00:12:58.386Z,23.13
2023-04-16T00:15:28.231Z,24.38
2023-04-16T00:17:58.079Z,24.92
2023-04-16T00:20:27.805Z,25.73
2023-04-16T00:22:57.273Z,24.42
2023-04-16T00:25:25.955Z,25.27
2023-04-16T00:27:53.870Z,25.75
2023-04-16T00:30:26.752Z,25.83
2023-04-16T00:32:58.100Z,25.38
2023-04-16T00:35:26.055Z,24.67
2023-04-16T00:40:22.794Z,24.35
2023-04-16T00:42:50.320Z,25.00
2023-04-16T00:45:17.892Z,24.30
2023-04-16T00:47:48.313Z,23.75
2023-04-16T00:50:21.616Z,25.17
2023-04-16T00:52:49.406Z,24.98
2023-04-16T00:55:18.779Z,24.60
2023-04-16T00:57:47.908Z,22.67
2023-04-16T01:00:16.365Z,22.73
2023-04-16T01:02:44.120Z,23.58
2023-04-16T01:05:11.726Z,25.02
2023-04-16T01:07:39.204Z,24.00
2023-04-16T01:10:07.132Z,23.65
2023-04-16T01:15:03.288Z,23.95
2023-04-16T01:17:31.095Z,24.35
2023-04-16T01:19:59.669Z,22.88
2023-04-16T01:22:28.532Z,24.10
2023-04-16T01:24:55.997Z,23.52
2023-04-16T01:27:24.297Z,24.05
2023-04-16T01:29:51.943Z,23.95
2023-04-16T01:32:24.957Z,24.35
2023-04-16T01:34:52.479Z,23.02
2023-04-16T01:37:20.009Z,22.05
2023-04-16T01:39:48.805Z,21.63
2023-04-16T01:42:16.266Z,22.63
2023-04-16T01:44:44.125Z,24.38
2023-04-16T01:47:11.508Z,22.90
2023-04-16T01:49:39.068Z,21.67
2023-04-16T01:52:08.321Z,23.40
2023-04-16T01:54:35.839Z,23.27
2023-04-16T01:57:04.686Z,23.50
2023-04-16T01:59:32.249Z,22.63
2023-04-16T02:02:01.568Z,22.90
2023-04-16T02:04:29.096Z,22.77
2023-04-16T02:06:56.529Z,25.05
2023-04-16T02:09:24.442Z,22.80
2023-04-16T02:14:21.920Z,22.90
2023-04-16T02:16:49.453Z,25.50
2023-04-16T02:19:40.791Z,24.08
2023-04-16T02:22:09.743Z,24.60
2023-04-16T02:24:37.241Z,24.88
2023-04-16T02:27:08.508Z,25.05
2023-04-16T02:29:37.411Z,26.73
2023-04-16T02:32:12.114Z,26.77
2023-04-16T02:34:43.267Z,25.42
2023-04-16T02:37:11.264Z,25.70
2023-04-16T02:39:39.118Z,26.98
2023-04-16T02:42:06.635Z,25.83
2023-04-16T02:44:34.194Z,27.70
2023-04-16T02:47:02.998Z,25.15
2023-04-16T02:49:30.997Z,25.25
2023-04-16T02:51:58.525Z,25.67
2023-04-16T02:54:25.999Z,25.98
2023-04-16T02:56:53.527Z,27.08
2023-04-16T02:59:21.107Z,27.33
2023-04-16T03:01:48.817Z,25.80
2023-04-16T03:04:17.864Z,27.42
2023-04-16T03:06:45.463Z,25.80
2023-04-16T03:09:13.208Z,26.83
2023-04-16T03:11:40.660Z,25.98
2023-04-16T03:14:08.218Z,26.85
2023-04-16T03:16:36.354Z,26.10
2023-04-16T03:19:03.939Z,26.60
2023-04-16T03:21:33.245Z,26.40
2023-04-16T03:24:00.736Z,27.40
2023-04-16T03:26:28.266Z,26.92
2023-04-16T03:28:56.405Z,25.83
2023-04-16T03:31:25.076Z,26.95
2023-04-16T03:33:53.469Z,25.92
2023-04-16T03:36:21.003Z,26.55
2023-04-16T03:38:50.036Z,27.73
2023-04-16T03:41:18.180Z,26.52
2023-04-16T03:43:45.790Z,27.75
2023-04-16T03:46:13.272Z,27.75
2023-04-16T03:48:40.780Z,30.67
2023-04-16T03:51:08.544Z,29.05
2023-04-16T03:53:36.087Z,30.42
2023-04-16T03:56:05.153Z,32.20
2023-04-16T03:58:32.634Z,30.00
2023-04-16T04:01:00.072Z,32.20
2023-04-16T04:03:27.934Z,34.08
2023-04-16T04:05:56.169Z,32.83
2023-04-16T04:08:29.794Z,34.05
2023-04-16T04:10:57.340Z,32.63
2023-04-16T04:13:27.071Z,31.63
2023-04-16T04:15:54.962Z,34.58
2023-04-16T04:18:23.539Z,36.85
2023-04-16T04:20:50.989Z,34.30
2023-04-16T04:23:21.233Z,34.25
2023-04-16T04:25:48.989Z,34.40
2023-04-16T04:28:18.688Z,34.72
2023-04-16T04:30:47.651Z,32.72
2023-04-16T04:33:15.153Z,32.35
2023-04-16T04:35:43.104Z,32.63
2023-04-16T04:38:10.693Z,33.53
2023-04-16T04:40:38.248Z,33.90
2023-04-16T04:43:05.703Z,33.90
2023-04-16T04:45:33.916Z,33.33
2023-04-16T04:48:02.720Z,34.55
2023-04-16T04:50:30.782Z,33.13
2023-04-16T04:52:58.523Z,33.70
2023-04-16T04:55:25.981Z,34.95
2023-04-16T04:57:53.486Z,35.25
2023-04-16T05:00:21.301Z,34.25
2023-04-16T05:02:54.245Z,34.28
2023-04-16T05:05:23.336Z,33.00
2023-04-16T05:07:50.897Z,34.53
2023-04-16T05:10:18.349Z,33.75
2023-04-16T05:12:48.822Z,33.95
2023-04-16T05:15:16.517Z,35.53
2023-04-16T05:17:44.027Z,34.25
2023-04-16T05:20:11.586Z,32.03
2023-04-16T05:22:40.522Z,34.35
2023-04-16T05:25:08.317Z,32.25
2023-04-16T05:27:36.264Z,35.53
2023-04-16T05:32:31.113Z,33.15
2023-04-16T05:34:58.601Z,31.70
2023-04-16T05:37:26.054Z,34.08
2023-04-16T05:39:54.818Z,34.60
2023-04-16T05:42:22.297Z,32.67
2023-04-16T05:44:49.729Z,34.35
2023-04-16T05:47:17.494Z,33.13
2023-04-16T05:49:44.996Z,34.33
2023-04-16T05:52:12.494Z,34.92
2023-04-16T05:54:39.983Z,34.15
2023-04-16T05:57:08.821Z,32.92
2023-04-16T05:59:36.376Z,34.50
2023-04-16T06:02:03.982Z,33.63
2023-04-16T06:04:31.606Z,32.97
2023-04-16T06:06:59.050Z,32.72
2023-04-16T06:09:26.527Z,31.98
2023-04-16T06:11:53.964Z,32.45
2023-04-16T06:14:22.781Z,32.13
2023-04-16T06:16:50.193Z,33.15
2023-04-16T06:19:17.664Z,36.67
2023-04-16T06:21:45.369Z,33.53
2023-04-16T06:24:13.201Z,34.15
2023-04-16T06:26:40.727Z,33.15
2023-04-16T06:29:08.418Z,32.80
2023-04-16T06:34:04.815Z,33.00
2023-04-16T06:36:32.239Z,33.58
2023-04-16T06:38:59.686Z,33.25
2023-04-16T06:41:27.194Z,32.88
2023-04-16T06:43:54.613Z,33.13
2023-04-16T06:46:22.065Z,33.38
2023-04-16T06:48:49.550Z,32.40
2023-04-16T06:51:18.388Z,32.42
2023-04-16T06:53:45.931Z,31.00
2023-04-16T06:56:13.366Z,30.55
2023-04-16T06:58:41.024Z,31.08
2023-04-16T07:01:10.078Z,29.33
2023-04-16T07:03:37.983Z,31.95
2023-04-16T07:06:05.595Z,31.48
2023-04-16T07:08:34.423Z,30.40
2023-04-16T07:11:01.888Z,30.02
2023-04-16T07:13:29.320Z,29.83
2023-04-16T07:15:56.825Z,29.83
2023-04-16T07:18:24.362Z,29.77
2023-04-16T07:20:51.803Z,30.17
2023-04-16T07:23:19.290Z,30.60
2023-04-16T07:25:48.005Z,29.65
2023-04-16T07:28:16.582Z,30.10
2023-04-16T07:30:44.179Z,28.60
2023-04-16T07:33:11.728Z,31.55
2023-04-16T07:35:39.249Z,28.77
2023-04-16T07:38:06.799Z,30.42
2023-04-16T07:40:34.257Z,28.98
2023-04-16T07:43:03.046Z,31.25
2023-04-16T07:45:30.521Z,29.45
2023-04-16T07:47:58.004Z,30.20
2023-04-16T07:50:25.963Z,28.52
2023-04-16T07:55:20.701Z,29.55
2023-04-16T07:57:48.184Z,28.45
2023-04-16T08:00:17.244Z,30.52
2023-04-16T08:02:45.372Z,29.30
2023-04-16T08:05:13.652Z,28.42
2023-04-16T08:07:41.125Z,27.95
2023-04-16T08:10:09.309Z,28.73
2023-04-16T08:12:36.883Z,29.30
2023-04-16T08:15:04.615Z,28.80
2023-04-16T08:17:34.421Z,28.55
2023-04-16T08:20:01.959Z,28.80
2023-04-16T08:22:29.461Z,29.30
2023-04-16T08:24:56.911Z,27.50
2023-04-16T08:27:24.412Z,27.88
2023-04-16T08:29:51.875Z,28.58
2023-04-16T08:32:19.382Z,28.98
2023-04-16T08:34:48.242Z,28.88
2023-04-16T08:37:15.765Z,28.00
2023-04-16T08:39:43.167Z,29.83
2023-04-16T08:42:13.881Z,27.63
2023-04-16T08:44:44.621Z,28.08
2023-04-16T08:47:13.536Z,26.90
2023-04-16T08:49:44.403Z,27.63
2023-04-16T08:52:15.716Z,27.70
2023-04-16T08:54:45.405Z,28.20
2023-04-16T08:57:13.498Z,27.48
2023-04-16T08:59:41.243Z,27.80
2023-04-16T09:02:09.956Z,26.50
2023-04-16T09:04:37.663Z,29.23
2023-04-16T09:07:05.658Z,28.65
2023-04-16T09:12:03.494Z,28.92
2023-04-16T09:14:31.703Z,28.23
2023-04-16T09:17:01.114Z,28.10
2023-04-16T09:19:28.725Z,27.33
2023-04-16T09:21:56.167Z,28.02
2023-04-16T09:24:23.838Z,27.35
2023-04-16T09:26:52.711Z,29.10
2023-04-16T09:29:35.757Z,27.73
2023-04-16T09:32:05.654Z,27.65
2023-04-16T09:34:34.238Z,27.30
2023-04-16T09:37:17.323Z,28.75
2023-04-16T09:39:45.357Z,26.48
2023-04-16T09:42:12.953Z,28.13
2023-04-16T09:44:40.508Z,29.13
2023-04-16T09:47:10.337Z,28.48
2023-04-16T09:49:42.119Z,29.58
2023-04-16T09:52:10.440Z,26.80
2023-04-16T09:54:37.805Z,28.13
2023-04-16T09:57:06.608Z,27.23
2023-04-16T09:59:36.332Z,26.80
2023-04-16T10:02:14.813Z,27.27
2023-04-16T10:04:48.013Z,27.30
2023-04-16T10:07:15.514Z,26.73
2023-04-16T10:09:42.962Z,26.42
2023-04-16T10:12:10.633Z,24.50
2023-04-16T10:14:38.020Z,26.25
2023-04-16T10:17:06.041Z,24.50
2023-04-16T10:19:33.739Z,25.10
2023-04-16T10:22:02.636Z,23.88
2023-04-16T10:24:31.061Z,24.65
2023-04-16T10:26:58.707Z,23.85
2023-04-16T10:29:27.743Z,23.70
2023-04-16T10:31:55.858Z,22.67
2023-04-16T10:34:23.641Z,23.52
2023-04-16T10:39:22.406Z,25.33
2023-04-16T10:41:50.225Z,23.73
2023-04-16T10:44:18.637Z,24.70
2023-04-16T10:46:49.327Z,22.63
2023-04-16T10:49:17.804Z,22.95
2023-04-16T10:51:53.287Z,22.73
2023-04-16T10:54:22.810Z,23.17
2023-04-16T10:56:51.054Z,23.17
2023-04-16T10:59:22.040Z,22.42
2023-04-16T11:01:52.613Z,21.65
2023-04-16T11:04:30.579Z,22.65
2023-04-16T11:07:01.775Z,21.05
2023-04-16T11:10:02.263Z,21.67
2023-04-16T11:12:34.788Z,22.30
2023-04-16T11:15:02.849Z,20.20
2023-04-16T11:17:31.760Z,21.08
2023-04-16T11:19:59.355Z,21.38
2023-04-16T11:22:26.781Z,19.98
2023-04-16T11:24:57.806Z,18.80
2023-04-16T11:27:25.443Z,18.13
2023-04-16T11:30:01.810Z,17.15
2023-04-16T11:32:31.857Z,16.38
2023-04-16T11:34:59.821Z,16.23
2023-04-16T11:37:33.148Z,16.73
2023-04-16T11:40:01.301Z,16.60
2023-04-16T11:42:29.402Z,16.90
2023-04-16T11:44:57.734Z,17.35
2023-04-16T11:47:27.068Z,17.08
2023-04-16T11:49:54.552Z,17.90
2023-04-16T11:52:30.780Z,16.23
2023-04-16T11:54:58.623Z,16.98
2023-04-16T12:00:02.585Z,16.58
2023-04-16T12:02:42.233Z,16.85
2023-04-16T12:05:27.428Z,17.20
2023-04-16T12:07:55.092Z,17.27
2023-04-16T12:10:22.537Z,17.60
2023-04-16T12:12:49.950Z,18.33
2023-04-16T12:15:17.776Z,17.98
2023-04-16T12:17:46.687Z,17.67
2023-04-16T12:20:15.341Z,18.00
2023-04-16T12:22:45.890Z,17.15
2023-04-16T12:25:14.261Z,17.75
2023-04-16T12:27:42.246Z,17.77
2023-04-16T12:30:10.596Z,16.75
2023-04-16T12:32:38.040Z,16.95
2023-04-16T12:35:07.290Z,18.60
2023-04-16T12:37:35.312Z,18.45
2023-04-16T12:40:03.707Z,19.77
2023-04-16T12:42:35.698Z,18.15
2023-04-16T12:45:04.130Z,18.23
2023-04-16T12:47:31.674Z,18.45
2023-04-16T12:49:59.372Z,18.95
2023-04-16T12:52:28.152Z,18.92
2023-04-16T12:54:55.639Z,19.33
2023-04-16T12:57:28.465Z,19.45
2023-04-16T12:59:56.541Z,18.23
2023-04-16T13:02:24.421Z,19.90
2023-04-16T13:04:52.183Z,18.60
2023-04-16T13:07:19.769Z,17.80
2023-04-16T13:09:48.484Z,17.10
2023-04-16T13:12:16.017Z,17.08
2023-04-16T13:14:45.028Z,18.45
2023-04-16T13:17:12.641Z,18.80
2023-04-16T13:19:40.023Z,17.63
2023-04-16T13:22:07.444Z,17.95
2023-04-16T13:24:34.958Z,17.17
2023-04-16T13:27:03.768Z,18.20
2023-04-16T13:29:31.198Z,17.27
2023-04-16T13:31:58.719Z,17.70
2023-04-16T13:34:26.256Z,17.55
2023-04-16T13:36:53.672Z,17.10
2023-04-16T13:39:21.160Z,17.52
2023-04-16T13:41:48.962Z,15.85
2023-04-16T13:44:17.699Z,15.52
2023-04-16T13:46:47.555Z,14.05
2023-04-16T13:49:15.119Z,15.30
2023-04-16T13:51:43.944Z,15.13
2023-04-16T13:54:11.383Z,14.70
2023-04-16T13:56:38.752Z,14.48
2023-04-16T13:59:06.186Z,13.43
2023-04-16T14:01:34.917Z,14.27
2023-04-16T14:04:06.100Z,13.05
2023-04-16T14:06:34.063Z,13.93
2023-04-16T14:09:01.855Z,13.98
2023-04-16T14:13:56.705Z,13.45
2023-04-16T14:16:24.203Z,14.15
2023-04-16T14:18:53.209Z,14.45
2023-04-16T14:21:20.584Z,13.80
2023-04-16T14:23:47.974Z,13.60
2023-04-16T14:26:15.499Z,13.15
2023-04-16T14:28:43.043Z,13.35
2023-04-16T14:31:10.528Z,13.43
2023-04-16T14:33:37.946Z,13.45
2023-04-16T14:36:07.376Z,15.02
2023-04-16T14:38:34.793Z,13.82
2023-04-16T14:41:02.251Z,13.63
2023-04-16T14:43:29.625Z,15.07
2023-04-16T14:45:58.134Z,14.80
2023-04-16T14:48:25.741Z,14.52
2023-04-16T14:50:54.367Z,14.35
2023-04-16T14:53:23.819Z,12.82
2023-04-16T14:55:51.300Z,13.60
2023-04-16T14:58:18.876Z,14.23
2023-04-16T15:00:46.288Z,14.27
2023-04-16T15:03:13.937Z,13.80
2023-04-16T15:05:41.454Z,13.63
2023-04-16T15:08:08.841Z,12.52
2023-04-16T15:10:37.983Z,13.55
2023-04-16T15:13:05.806Z,13.60
2023-04-16T15:18:00.660Z,13.10
2023-04-16T15:20:28.119Z,11.82
2023-04-16T15:22:55.540Z,11.40
2023-04-16T15:25:23.357Z,12.70
2023-04-16T15:27:52.201Z,12.02
2023-04-16T15:30:19.774Z,11.50
2023-04-16T15:32:47.649Z,12.07
2023-04-16T15:35:15.460Z,12.43
2023-04-16T15:37:42.825Z,11.13
2023-04-16T15:40:10.647Z,11.68
2023-04-16T15:42:38.090Z,11.52
2023-04-16T15:45:07.364Z,11.32
2023-04-16T15:47:35.167Z,10.60
2023-04-16T15:52:30.668Z,11.07
2023-04-16T15:54:58.070Z,10.15
2023-04-16T15:57:25.477Z,10.60
2023-04-16T16:00:05.937Z,10.65
2023-04-16T16:02:35.985Z,10.23
2023-04-16T16:05:04.080Z,10.60
2023-04-16T16:09:58.737Z,9.95
2023-04-16T16:12:26.133Z,10.65
2023-04-16T16:14:53.798Z,10.35
2023-04-16T16:17:21.574Z,10.13
2023-04-16T16:22:20.370Z,11.05
2023-04-16T16:24:48.848Z,10.00
2023-04-16T16:27:16.273Z,10.85
2023-04-16T16:29:43.708Z,10.57
2023-04-16T16:32:11.362Z,11.10
2023-04-16T16:34:38.790Z,10.13
2023-04-16T16:37:06.446Z,11.18
2023-04-16T16:39:36.632Z,10.65
2023-04-16T16:42:05.866Z,11.40
2023-04-16T16:44:33.302Z,12.85
2023-04-16T16:47:00.849Z,12.80
2023-04-16T16:49:28.281Z,11.68
2023-04-16T16:51:55.711Z,12.35
2023-04-16T16:54:23.098Z,13.27
2023-04-16T16:56:51.944Z,12.15
2023-04-16T16:59:19.403Z,12.48
2023-04-16T17:01:46.887Z,12.48
2023-04-16T17:04:14.459Z,12.98
2023-04-16T17:06:45.690Z,11.38
2023-04-16T17:09:13.514Z,12.77
2023-04-16T17:11:41.141Z,12.50
2023-04-16T17:14:09.953Z,12.75
2023-04-16T17:16:37.436Z,11.90
2023-04-16T17:19:04.885Z,12.70
2023-04-16T17:21:33.178Z,13.57
2023-04-16T17:24:00.552Z,12.57
2023-04-16T17:26:28.003Z,12.25
2023-04-16T17:28:57.397Z,12.40
2023-04-16T17:31:27.182Z,13.75
2023-04-16T17:33:54.764Z,12.63
2023-04-16T17:36:23.119Z,13.48
2023-04-16T17:38:51.094Z,13.70
2023-04-16T17:43:47.523Z,13.18
2023-04-16T17:46:15.023Z,13.07
2023-04-16T17:48:44.562Z,12.95
2023-04-16T17:51:12.301Z,13.07
2023-04-16T17:53:39.737Z,14.18
2023-04-16T17:56:07.607Z,12.63
2023-04-16T18:08:27.330Z,13.18
2023-04-16T18:10:55.271Z,13.32
2023-04-16T18:13:23.015Z,13.27
2023-04-16T18:15:50.626Z,13.27
2023-04-16T18:18:18.601Z,14.40
2023-04-16T18:23:13.462Z,14.65
2023-04-16T18:25:42.551Z,13.75
2023-04-16T18:28:10.057Z,14.07
2023-04-16T18:30:40.510Z,13.90
2023-04-16T18:33:34.209Z,14.68
2023-04-16T18:35:55.677Z,13.63
2023-04-16T18:38:23.194Z,13.45
2023-04-16T18:40:52.110Z,16.33
2023-04-16T18:43:19.696Z,14.07
2023-04-16T18:45:47.263Z,14.98
2023-04-16T18:48:14.896Z,14.52
2023-04-16T18:50:42.334Z,15.48
2023-04-16T18:53:09.838Z,15.52
2023-04-16T18:55:37.632Z,15.35
2023-04-16T18:58:06.666Z,17.60
2023-04-16T19:00:34.295Z,16.08
2023-04-16T19:05:36.801Z,17.00
2023-04-16T19:08:04.337Z,17.02
2023-04-16T19:10:31.748Z,17.35
2023-04-16T19:12:59.448Z,18.73
2023-04-16T19:15:33.161Z,17.58
2023-04-16T19:18:02.151Z,20.23
2023-04-16T19:20:29.634Z,18.27
2023-04-16T19:22:57.151Z,20.73
2023-04-16T19:25:24.766Z,19.17
2023-04-16T19:27:52.361Z,18.30
2023-04-16T19:30:20.052Z,19.30
2023-04-16T19:32:48.914Z,18.25
2023-04-16T19:35:16.472Z,18.83
2023-04-16T19:37:44.349Z,17.17
2023-04-16T19:42:39.301Z,18.13
2023-04-16T19:45:07.743Z,17.60
2023-04-16T19:47:35.480Z,17.52
2023-04-16T19:52:37.163Z,18.65
2023-04-16T19:55:04.737Z,18.55
2023-04-16T19:57:32.256Z,18.73
2023-04-16T19:59:59.784Z,22.20
2023-04-16T20:02:27.408Z,22.88
2023-04-16T20:04:54.960Z,21.75
2023-04-16T20:07:22.399Z,23.23
2023-04-16T20:09:51.357Z,24.27
2023-04-16T20:12:19.041Z,24.70
2023-04-16T20:14:47.263Z,23.88
2023-04-16T20:17:19.557Z,23.33
2023-04-16T20:19:49.266Z,23.60
2023-04-16T20:22:18.468Z,25.50
2023-04-16T20:24:47.903Z,25.58
2023-04-16T20:27:19.359Z,25.88
2023-04-16T20:29:46.843Z,26.75
2023-04-16T20:32:14.332Z,27.17
2023-04-16T20:34:42.810Z,25.40
2023-04-16T20:37:10.496Z,27.02
2023-04-16T20:39:40.021Z,25.83
2023-04-16T20:42:10.349Z,26.13
2023-04-16T20:44:41.402Z,26.58
2023-04-16T20:47:08.895Z,27.08
2023-04-16T20:49:36.433Z,24.35
2023-04-16T20:52:04.063Z,25.85
2023-04-16T20:54:31.628Z,24.52
2023-04-16T20:56:59.205Z,28.40
2023-04-16T20:59:26.661Z,27.70
2023-04-16T21:01:56.564Z,26.27
2023-04-16T21:04:24.481Z,26.58
2023-04-16T21:09:21.106Z,24.25
2023-04-16T21:11:48.965Z,26.40
2023-04-16T21:14:16.567Z,25.48
2023-04-16T21:16:44.010Z,25.67
2023-04-16T21:19:12.803Z,25.55
2023-04-16T21:21:41.709Z,25.33
2023-04-16T21:24:09.311Z,24.83
2023-04-16T21:26:36.736Z,24.73
2023-04-16T21:29:06.741Z,24.92
2023-04-16T21:31:34.284Z,25.63
2023-04-16T21:34:01.732Z,23.70
2023-04-16T21:36:31.972Z,24.05
2023-04-16T21:38:59.350Z,23.75
2023-04-16T21:41:26.868Z,26.75
2023-04-16T21:43:54.462Z,23.42
2023-04-16T21:46:22.485Z,23.77
2023-04-16T21:48:50.827Z,24.25
2023-04-16T21:51:19.983Z,25.13
2023-04-16T21:53:48.937Z,24.20
2023-04-16T21:56:16.353Z,24.38
2023-04-16T21:58:43.928Z,23.58
2023-04-16T22:01:11.606Z,24.23
2023-04-16T22:03:40.358Z,24.80
2023-04-16T22:06:08.691Z,23.38
2023-04-16T22:08:36.145Z,24.35
2023-04-16T22:11:05.342Z,22.92
2023-04-16T22:13:33.267Z,23.13
2023-04-16T22:18:32.948Z,24.23
2023-04-16T22:21:05.750Z,25.23
2023-04-16T22:23:33.184Z,23.45
2023-04-16T22:26:02.567Z,22.80
2023-04-16T22:28:31.373Z,25.15
2023-04-16T22:30:58.844Z,25.35
2023-04-16T22:33:26.412Z,24.70
2023-04-16T22:35:54.067Z,25.17
2023-04-16T22:38:21.970Z,23.67
2023-04-16T22:40:49.700Z,24.08
2023-04-16T22:43:17.596Z,22.60
2023-04-16T22:48:15.560Z,24.02
2023-04-16T22:50:45.946Z,23.65
2023-04-16T22:53:13.536Z,24.80
2023-04-16T22:55:40.945Z,25.73
2023-04-16T22:58:08.368Z,25.25
2023-04-16T23:00:35.941Z,24.15
2023-04-16T23:03:03.593Z,24.58
2023-04-16T23:05:32.616Z,25.63
2023-04-16T23:08:00.070Z,27.67
2023-04-16T23:10:28.106Z,25.88
2023-04-16T23:15:22.928Z,26.60
2023-04-16T23:17:50.514Z,26.13
2023-04-16T23:20:18.042Z,28.45
2023-04-16T23:22:46.982Z,25.30
2023-04-16T23:25:14.448Z,24.80
2023-04-16T23:27:41.848Z,26.67
2023-04-16T23:30:09.738Z,24.40
2023-04-16T23:32:37.188Z,27.23
2023-04-16T23:35:04.909Z,25.60
2023-04-16T23:37:35.374Z,26.63
2023-04-16T23:40:04.770Z,26.20
2023-04-16T23:42:32.229Z,26.75
2023-04-16T23:44:59.999Z,24.63
2023-04-16T23:47:27.450Z,26.48
2023-04-16T23:49:54.899Z,25.73
2023-04-16T23:52:22.377Z,24.90
2023-04-16T23:54:49.857Z,25.73
2023-04-16T23:57:18.660Z,26.00
2023-04-16T23:59:46.178Z,25.95
